Whitlash, MT (59545)

3:10 AM MDT on September 23, 2014 (GMT -0600)
Fred and George | Change Station
CLOSE
Current Station
Personal Weather Station
Location: Galata, MT
Elevation: 3777 ft
Nearby Weather Stations

Elev 3777 ft 48.94 °N, 111.43 °W | Updated 4 minutes ago

Clear
Clear
69.4 °F
Feels Like 69.4 °F
N
15.0
Wind Variable Wind from WSW

Today
High -- | Low -- °F
--% Chance of Precip.
Yesterday
High -- | Low -- °F
Precip. -- in
7:12 AM 7:19 PM
Waning Crescent, 1% visible
Pressure 29.84 in
Visibility 10.0 miles
Clouds Clear
Dew Point 45 °F
Humidity 42%
Rainfall 0.00 in
Snow Depth Not available.
UV 0 out of 12
Pollen 7.00 out of 12
Air Quality Not available.
Flu Activity Not available.
METAR KCTB 230856Z AUTO 27012KT 10SM CLR 16/06 A2994 RMK AO2 SLP103 T01610061 53005

More Conditions Fewer Conditions

Pressure 29.84 in
Visibility 10.0 miles
Clouds Clear
Dew Point 45 °F
Humidity 42%
Rainfall 0.00 in
Snow Depth Not available.
UV 0 out of 12
Pollen 7.00 out of 12
Air Quality Not available.
Flu Activity Not available.
METAR KCTB 230856Z AUTO 27012KT 10SM CLR 16/06 A2994 RMK AO2 SLP103 T01610061 53005

More Conditions Fewer Conditions

10-Day Weather Forecast

Almanac

Astronomy

Sep. 23, 2014 Rise Set
Actual Time 7:12 AM MDT 7:19 PM MDT
Civil Twilight 6:41 AM MDT 7:51 PM MDT
Nautical Twilight 6:03 AM MDT 8:28 PM MDT
Astronomical Twilight 5:25 AM MDT 9:06 PM MDT
Moon 6:39 AM MDT 6:59 PM MDT
Length of Visible Light 13h 10m
Length of Day
12h 07m
Tomorrow will be 3m 34s shorter.
Waning Crescent, 1% of the Moon is Illuminated
Today
Waning Crescent
Sep 24
New
Oct 1
First Quarter
Oct 8
Full
Oct 15
Last Quarter

Today's Extremes

State Highs State Lows

Community

WunderPhotos

Upload Photos

1,755,643 photos uploaded!

Nearby

Snow Depth

Station Depth Elevation
Waldron 1 in 5600 ft
Emery Creek 0 in 4350 ft
Rocky Boy 0 in 4700 ft
Fisher Creek 1 in 9100 ft
Placer Basin 0 in 8830 ft

Earthquake Activity

City Distance Mag. Time & Date
No recent earthquake activity has been reported nearby.
Minimum magnitude displayed is 2.5.

Coastal Water Temperatures

Place Temperature
No Stations Reporting

Nearby Weather Stations